Atlantida Azul — CSYG2 — position and weather

sailwx.info

Track history (hours):
 
Tides and Currents Weather Stations Pressure Air Temp Water Temp Dewpoint Dewpoint Depression Visibility Wind Speed Wind Dir Waves Ship Positions

Atlantida Azul

Last reported at 2017-Jan-17 18:33 UTC. Time now 2017-Jan-17 19:12 UTC.
Position N 37°55' W 008°51'.

Length 16 m.

Type: Pilot. MMSI: 263672880.

Date/timePositionNaut miles runAvg speedWind from/ knotsBaromVisibWave heightAir tempDewpointWater temp
2017-Jan-17 18:33N 37°55' W 008°51'1 1.0
2017-Jan-17 17:33N 37°56' W 008°51'1 1.1
2017-Jan-17 16:32N 37°57' W 008°52'0 0.0
2017-Jan-17 15:32N 37°57' W 008°52'1 0.7
2017-Jan-17 14:33N 37°56' W 008°51'0 0.3
2017-Jan-17 13:33N 37°56' W 008°51'0 0.4
2017-Jan-17 12:33N 37°56' W 008°51'1 1.3
2017-Jan-17 11:32N 37°57' W 008°52'0 0.0
2017-Jan-17 06:30N 37°57' W 008°52'1 1.1
2017-Jan-17 05:33N 37°57' W 008°53'0 0.3
2017-Jan-17 04:33N 37°57' W 008°53'0 0.3
2017-Jan-17 03:33N 37°57' W 008°53'1 0.4
2017-Jan-17 00:33N 37°57' W 008°52'2 0.6
2017-Jan-16 21:33N 37°55' W 008°53'2 0.6
2017-Jan-16 18:19N 37°57' W 008°52'0 0.0
2017-Jan-16 17:31N 37°57' W 008°52'1 0.9
2017-Jan-16 16:33N 37°56' W 008°51'3 2.9
2017-Jan-16 15:33N 37°54' W 008°54'3 2.8
2017-Jan-16 14:32N 37°56' W 008°51'2 1.8
2017-Jan-16 13:33N 37°57' W 008°53'1 0.9
2017-Jan-16 12:33N 37°56' W 008°52'2 1.6
2017-Jan-16 11:33N 37°55' W 008°51'1 0.5
2017-Jan-16 09:23N 37°56' W 008°51'0 0.5
2017-Jan-16 08:33N 37°56' W 008°51'1 0.7
2017-Jan-16 07:33N 37°57' W 008°52'0 0.4
2017-Jan-16 06:33N 37°56' W 008°52'1 0.4
2017-Jan-16 04:34N 37°56' W 008°51'0 0.0
2017-Jan-15 21:09N 37°56' W 008°51'0 0.0
2017-Jan-15 15:12N 37°56' W 008°51'2 2.7
2017-Jan-15 14:33N 37°57' W 008°53'2 2.0
2017-Jan-15 13:33N 37°56' W 008°51'1 1.1
2017-Jan-15 12:24N 37°57' W 008°52'1 1.2
2017-Jan-15 11:33N 37°56' W 008°52'1 0.6
2017-Jan-15 10:09N 37°56' W 008°51'0 0.1
2017-Jan-15 09:33N 37°56' W 008°51'1 0.7
2017-Jan-15 08:33N 37°56' W 008°51'2 0.4
2017-Jan-15 04:33N 37°56' W 008°53'1 0.3
2017-Jan-15 00:33N 37°55' W 008°52'2 2.2
2017-Jan-14 23:33N 37°57' W 008°53'2 1.9
2017-Jan-14 22:33N 37°56' W 008°51'1 0.8
2017-Jan-14 21:34N 37°56' W 008°52'1 0.2
2017-Jan-14 18:14N 37°56' W 008°51'2 2.8
2017-Jan-14 17:33N 37°57' W 008°53'2 2.5
2017-Jan-14 16:33N 37°55' W 008°51'0 0.2
2017-Jan-14 14:34N 37°56' W 008°51'2 2.3
2017-Jan-14 13:33N 37°57' W 008°53'1 1.2
2017-Jan-14 12:33N 37°57' W 008°52'1 1.1
2017-Jan-14 11:33N 37°56' W 008°51'0 0.0
2017-Jan-13 23:29N 37°56' W 008°51'0 0.0
2017-Jan-13 22:32N 37°56' W 008°51'1 1.0
2017-Jan-13 21:33N 37°55' W 008°51'0 0.5
2017-Jan-13 20:33N 37°56' W 008°51'1 1.3
2017-Jan-13 19:32N 37°57' W 008°52'1 0.8
2017-Jan-13 18:33N 37°56' W 008°52'1 0.7
2017-Jan-13 17:33N 37°56' W 008°51'1 1.4
2017-Jan-13 16:33N 37°56' W 008°53'1 1.4
2017-Jan-13 15:33N 37°56' W 008°51'1 0.2
2017-Jan-13 08:33N 37°56' W 008°52'1 0.9
2017-Jan-13 07:19N 37°57' W 008°52'1 1.8
2017-Jan-13 06:33N 37°55' W 008°51'1 0.3
2017-Jan-13 04:19N 37°56' W 008°51'0 0.0
2017-Jan-13 01:05N 37°56' W 008°51'0 0.5
2017-Jan-13 00:31N 37°56' W 008°51'0 0.1
2017-Jan-12 22:29N 37°56' W 008°51'2 1.9
2017-Jan-12 21:32N 37°57' W 008°53'1 0.9
2017-Jan-12 20:16N 37°57' W 008°52'2 3.5
2017-Jan-12 19:33N 37°54' W 008°53'2 2.4
2017-Jan-12 18:31N 37°57' W 008°52'0 0.0
2017-Jan-12 17:31N 37°57' W 008°52'0 0.0
2017-Jan-12 16:33N 37°57' W 008°52'2 1.8
2017-Jan-12 15:33N 37°55' W 008°53'2 1.5
2017-Jan-12 14:32N 37°57' W 008°53'2 0.9
2017-Jan-12 12:24N 37°56' W 008°51'2 2.3
2017-Jan-12 11:33N 37°54' W 008°51'2 0.4
2017-Jan-12 06:07N 37°56' W 008°51'2 3.5
2017-Jan-12 05:32N 37°57' W 008°53'1 1.3
2017-Jan-12 04:34N 37°57' W 008°52'1 1.3
2017-Jan-12 03:33N 37°57' W 008°53'2 0.9
2017-Jan-12 01:16N 37°56' W 008°51'2 2.7
2017-Jan-12 00:33N 37°57' W 008°53'2 0.4
2017-Jan-11 20:06N 37°56' W 008°51'0 0.0
2017-Jan-11 18:22N 37°56' W 008°51'0 0.5
2017-Jan-11 17:33N 37°56' W 008°51'0 0.1
2017-Jan-11 12:32N 37°56' W 008°51'0 0.5
2017-Jan-11 11:31N 37°56' W 008°51'2 2.2
2017-Jan-11 10:33N 37°57' W 008°53'2 1.7
2017-Jan-11 09:33N 37°56' W 008°51'1 0.2
2017-Jan-11 05:33N 37°55' W 008°51'1 0.3
2017-Jan-11 03:04N 37°56' W 008°51'0 0.7
2017-Jan-11 02:32N 37°56' W 008°51'0 0.2
2017-Jan-11 00:12N 37°56' W 008°51'2 3.0
2017-Jan-10 23:31N 37°57' W 008°53'0 0.1
2017-Jan-10 22:34N 37°57' W 008°53'3 2.8
2017-Jan-10 21:33N 37°55' W 008°51'1 1.3
2017-Jan-10 20:33N 37°56' W 008°52'2 2.0
2017-Jan-10 19:33N 37°54' W 008°50'2 2.1
2017-Jan-10 18:33N 37°55' W 008°53'2 1.2
2017-Jan-10 16:33N 37°54' W 008°50'2 2.3
2017-Jan-10 15:34N 37°56' W 008°51'0 0.2
2017-Jan-10 14:19N 37°56' W 008°51'1 1.8
2017-Jan-10 13:33N 37°55' W 008°52'1 1.2
2017-Jan-10 12:33N 37°56' W 008°51'0 0.2
2017-Jan-10 10:30N 37°56' W 008°51'2 2.4
2017-Jan-10 09:33N 37°55' W 008°53'2 1.1
2017-Jan-10 07:33N 37°56' W 008°51'0 0.0
2017-Jan-10 06:32N 37°56' W 008°51'0 0.1
2017-Jan-10 03:32N 37°56' W 008°51'0 0.2
2017-Jan-10 02:31N 37°56' W 008°51'1 0.6
2017-Jan-10 01:33N 37°56' W 008°52'0 0.0
2017-Jan-10 00:33N 37°56' W 008°52'1 1.1
2017-Jan-09 23:33N 37°56' W 008°51'2 2.2
2017-Jan-09 22:33N 37°55' W 008°53'2 2.1
2017-Jan-09 21:33N 37°57' W 008°52'1 1.3
2017-Jan-09 20:32N 37°56' W 008°51'0 0.1
2017-Jan-09 14:33N 37°56' W 008°51'0 0.1
2017-Jan-09 10:14N 37°56' W 008°51'0 0.6
2017-Jan-09 09:29N 37°56' W 008°51'2 0.4
2017-Jan-09 03:33N 37°55' W 008°53'2 0.4
2017-Jan-08 23:33N 37°56' W 008°52'0 0.1
2017-Jan-08 22:33N 37°56' W 008°52'2 1.8
2017-Jan-08 21:33N 37°55' W 008°51'1 0.8
2017-Jan-08 20:09N 37°56' W 008°51'0 0.7
2017-Jan-08 19:33N 37°56' W 008°51'2 0.1
2017-Jan-07 20:33N 37°53' W 008°51'4 3.7
2017-Jan-07 19:33N 37°57' W 008°53'  
Track history (hours):
 
Tides and Currents Weather Stations Pressure Air Temp Water Temp Dewpoint Dewpoint Depression Visibility Wind Speed Wind Dir Waves Ship Positions

Atlantida Azul

Last reported at 2017-Jan-17 18:33 UTC. Time now 2017-Jan-17 19:12 UTC.
Position N 37°55' W 008°51'.

Length 16 m.

Type: Pilot. MMSI: 263672880.

Date/timePositionNaut miles runAvg speedWind from/ knotsBaromVisibWave heightAir tempDewpointWater temp
2017-Jan-17 18:33N 37°55' W 008°51'1 1.0
2017-Jan-17 17:33N 37°56' W 008°51'1 1.1
2017-Jan-17 16:32N 37°57' W 008°52'0 0.0
2017-Jan-17 15:32N 37°57' W 008°52'1 0.7
2017-Jan-17 14:33N 37°56' W 008°51'0 0.3
2017-Jan-17 13:33N 37°56' W 008°51'0 0.4
2017-Jan-17 12:33N 37°56' W 008°51'1 1.3
2017-Jan-17 11:32N 37°57' W 008°52'0 0.0
2017-Jan-17 06:30N 37°57' W 008°52'1 1.1
2017-Jan-17 05:33N 37°57' W 008°53'0 0.3
2017-Jan-17 04:33N 37°57' W 008°53'0 0.3
2017-Jan-17 03:33N 37°57' W 008°53'1 0.4
2017-Jan-17 00:33N 37°57' W 008°52'2 0.6
2017-Jan-16 21:33N 37°55' W 008°53'2 0.6
2017-Jan-16 18:19N 37°57' W 008°52'0 0.0
2017-Jan-16 17:31N 37°57' W 008°52'1 0.9
2017-Jan-16 16:33N 37°56' W 008°51'3 2.9
2017-Jan-16 15:33N 37°54' W 008°54'3 2.8
2017-Jan-16 14:32N 37°56' W 008°51'2 1.8
2017-Jan-16 13:33N 37°57' W 008°53'1 0.9
2017-Jan-16 12:33N 37°56' W 008°52'2 1.6
2017-Jan-16 11:33N 37°55' W 008°51'1 0.5
2017-Jan-16 09:23N 37°56' W 008°51'0 0.5
2017-Jan-16 08:33N 37°56' W 008°51'1 0.7
2017-Jan-16 07:33N 37°57' W 008°52'0 0.4
2017-Jan-16 06:33N 37°56' W 008°52'1 0.4
2017-Jan-16 04:34N 37°56' W 008°51'0 0.0
2017-Jan-15 21:09N 37°56' W 008°51'0 0.0
2017-Jan-15 15:12N 37°56' W 008°51'2 2.7
2017-Jan-15 14:33N 37°57' W 008°53'2 2.0
2017-Jan-15 13:33N 37°56' W 008°51'1 1.1
2017-Jan-15 12:24N 37°57' W 008°52'1 1.2
2017-Jan-15 11:33N 37°56' W 008°52'1 0.6
2017-Jan-15 10:09N 37°56' W 008°51'0 0.1
2017-Jan-15 09:33N 37°56' W 008°51'1 0.7
2017-Jan-15 08:33N 37°56' W 008°51'2 0.4
2017-Jan-15 04:33N 37°56' W 008°53'1 0.3
2017-Jan-15 00:33N 37°55' W 008°52'2 2.2
2017-Jan-14 23:33N 37°57' W 008°53'2 1.9
2017-Jan-14 22:33N 37°56' W 008°51'1 0.8
2017-Jan-14 21:34N 37°56' W 008°52'1 0.2
2017-Jan-14 18:14N 37°56' W 008°51'2 2.8
2017-Jan-14 17:33N 37°57' W 008°53'2 2.5
2017-Jan-14 16:33N 37°55' W 008°51'0 0.2
2017-Jan-14 14:34N 37°56' W 008°51'2 2.3
2017-Jan-14 13:33N 37°57' W 008°53'1 1.2
2017-Jan-14 12:33N 37°57' W 008°52'1 1.1
2017-Jan-14 11:33N 37°56' W 008°51'0 0.0
2017-Jan-13 23:29N 37°56' W 008°51'0 0.0
2017-Jan-13 22:32N 37°56' W 008°51'1 1.0
2017-Jan-13 21:33N 37°55' W 008°51'0 0.5
2017-Jan-13 20:33N 37°56' W 008°51'1 1.3
2017-Jan-13 19:32N 37°57' W 008°52'1 0.8
2017-Jan-13 18:33N 37°56' W 008°52'1 0.7
2017-Jan-13 17:33N 37°56' W 008°51'1 1.4
2017-Jan-13 16:33N 37°56' W 008°53'1 1.4
2017-Jan-13 15:33N 37°56' W 008°51'1 0.2
2017-Jan-13 08:33N 37°56' W 008°52'1 0.9
2017-Jan-13 07:19N 37°57' W 008°52'1 1.8
2017-Jan-13 06:33N 37°55' W 008°51'1 0.3
2017-Jan-13 04:19N 37°56' W 008°51'0 0.0
2017-Jan-13 01:05N 37°56' W 008°51'0 0.5
2017-Jan-13 00:31N 37°56' W 008°51'0 0.1
2017-Jan-12 22:29N 37°56' W 008°51'2 1.9
2017-Jan-12 21:32N 37°57' W 008°53'1 0.9
2017-Jan-12 20:16N 37°57' W 008°52'2 3.5
2017-Jan-12 19:33N 37°54' W 008°53'2 2.4
2017-Jan-12 18:31N 37°57' W 008°52'0 0.0
2017-Jan-12 17:31N 37°57' W 008°52'0 0.0
2017-Jan-12 16:33N 37°57' W 008°52'2 1.8
2017-Jan-12 15:33N 37°55' W 008°53'2 1.5
2017-Jan-12 14:32N 37°57' W 008°53'2 0.9
2017-Jan-12 12:24N 37°56' W 008°51'2 2.3
2017-Jan-12 11:33N 37°54' W 008°51'2 0.4
2017-Jan-12 06:07N 37°56' W 008°51'2 3.5
2017-Jan-12 05:32N 37°57' W 008°53'1 1.3
2017-Jan-12 04:34N 37°57' W 008°52'1 1.3
2017-Jan-12 03:33N 37°57' W 008°53'2 0.9
2017-Jan-12 01:16N 37°56' W 008°51'2 2.7
2017-Jan-12 00:33N 37°57' W 008°53'2 0.4
2017-Jan-11 20:06N 37°56' W 008°51'0 0.0
2017-Jan-11 18:22N 37°56' W 008°51'0 0.5
2017-Jan-11 17:33N 37°56' W 008°51'0 0.1
2017-Jan-11 12:32N 37°56' W 008°51'0 0.5
2017-Jan-11 11:31N 37°56' W 008°51'2 2.2
2017-Jan-11 10:33N 37°57' W 008°53'2 1.7
2017-Jan-11 09:33N 37°56' W 008°51'1 0.2
2017-Jan-11 05:33N 37°55' W 008°51'1 0.3
2017-Jan-11 03:04N 37°56' W 008°51'0 0.7
2017-Jan-11 02:32N 37°56' W 008°51'0 0.2
2017-Jan-11 00:12N 37°56' W 008°51'2 3.0
2017-Jan-10 23:31N 37°57' W 008°53'0 0.1
2017-Jan-10 22:34N 37°57' W 008°53'3 2.8
2017-Jan-10 21:33N 37°55' W 008°51'1 1.3
2017-Jan-10 20:33N 37°56' W 008°52'2 2.0
2017-Jan-10 19:33N 37°54' W 008°50'2 2.1
2017-Jan-10 18:33N 37°55' W 008°53'2 1.2
2017-Jan-10 16:33N 37°54' W 008°50'2 2.3
2017-Jan-10 15:34N 37°56' W 008°51'0 0.2
2017-Jan-10 14:19N 37°56' W 008°51'1 1.8
2017-Jan-10 13:33N 37°55' W 008°52'1 1.2
2017-Jan-10 12:33N 37°56' W 008°51'0 0.2
2017-Jan-10 10:30N 37°56' W 008°51'2 2.4
2017-Jan-10 09:33N 37°55' W 008°53'2 1.1
2017-Jan-10 07:33N 37°56' W 008°51'0 0.0
2017-Jan-10 06:32N 37°56' W 008°51'0 0.1
2017-Jan-10 03:32N 37°56' W 008°51'0 0.2
2017-Jan-10 02:31N 37°56' W 008°51'1 0.6
2017-Jan-10 01:33N 37°56' W 008°52'0 0.0
2017-Jan-10 00:33N 37°56' W 008°52'1 1.1
2017-Jan-09 23:33N 37°56' W 008°51'2 2.2
2017-Jan-09 22:33N 37°55' W 008°53'2 2.1
2017-Jan-09 21:33N 37°57' W 008°52'1 1.3
2017-Jan-09 20:32N 37°56' W 008°51'0 0.1
2017-Jan-09 14:33N 37°56' W 008°51'0 0.1
2017-Jan-09 10:14N 37°56' W 008°51'0 0.6
2017-Jan-09 09:29N 37°56' W 008°51'2 0.4
2017-Jan-09 03:33N 37°55' W 008°53'2 0.4
2017-Jan-08 23:33N 37°56' W 008°52'0 0.1
2017-Jan-08 22:33N 37°56' W 008°52'2 1.8
2017-Jan-08 21:33N 37°55' W 008°51'1 0.8
2017-Jan-08 20:09N 37°56' W 008°51'0 0.7
2017-Jan-08 19:33N 37°56' W 008°51'2 0.1
2017-Jan-07 20:33N 37°53' W 008°51'4 3.7
2017-Jan-07 19:33N 37°57' W 008°53'  

Dump ship's entire track history